sensor_id;sensor_type;location;lat;lon;timestamp;pressure;altitude;pressure_sealevel;temperature;humidity
74075;BME280;62428;51.412;5.432;2022-08-20T00:02:23;101426.22;;;19.85;84.90
74075;BME280;62428;51.412;5.432;2022-08-20T00:04:49;101418.38;;;19.83;84.83
74075;BME280;62428;51.412;5.432;2022-08-20T00:07:14;101418.28;;;19.80;84.50
74075;BME280;62428;51.412;5.432;2022-08-20T00:09:40;101413.16;;;19.78;85.27
74075;BME280;62428;51.412;5.432;2022-08-20T00:12:08;101414.31;;;19.77;84.37
74075;BME280;62428;51.412;5.432;2022-08-20T00:14:34;101406.59;;;19.79;84.80
74075;BME280;62428;51.412;5.432;2022-08-20T00:17:01;101404.63;;;19.80;85.14
74075;BME280;62428;51.412;5.432;2022-08-20T00:19:27;101408.16;;;19.80;84.57
74075;BME280;62428;51.412;5.432;2022-08-20T00:21:52;101403.84;;;19.79;84.99
74075;BME280;62428;51.412;5.432;2022-08-20T00:24:18;101402.69;;;19.80;84.69
74075;BME280;62428;51.412;5.432;2022-08-20T00:26:43;101410.44;;;19.78;84.73
74075;BME280;62428;51.412;5.432;2022-08-20T00:29:09;101409.97;;;19.76;84.58
74075;BME280;62428;51.412;5.432;2022-08-20T00:32:01;101424.06;;;19.78;83.83
74075;BME280;62428;51.412;5.432;2022-08-20T00:34:32;101412.25;;;19.74;85.11
74075;BME280;62428;51.412;5.432;2022-08-20T00:37:23;101414.66;;;19.75;84.76
74075;BME280;62428;51.412;5.432;2022-08-20T00:39:55;101411.91;;;19.75;85.12
74075;BME280;62428;51.412;5.432;2022-08-20T00:42:20;101416.22;;;19.76;85.36
74075;BME280;62428;51.412;5.432;2022-08-20T00:44:46;101416.91;;;19.73;84.78
74075;BME280;62428;51.412;5.432;2022-08-20T00:47:13;101412.25;;;19.74;85.07
74075;BME280;62428;51.412;5.432;2022-08-20T00:49:39;101416.91;;;19.73;85.14
74075;BME280;62428;51.412;5.432;2022-08-20T00:52:12;101419.63;;;19.73;85.19
74075;BME280;62428;51.412;5.432;2022-08-20T00:54:43;101407.09;;;19.72;85.35
74075;BME280;62428;51.412;5.432;2022-08-20T00:57:32;101409.81;;;19.72;84.47
74075;BME280;62428;51.412;5.432;2022-08-20T01:00:05;101420.28;;;19.70;85.34
74075;BME280;62428;51.412;5.432;2022-08-20T01:02:36;101416.78;;;19.70;85.13
74075;BME280;62428;51.412;5.432;2022-08-20T01:05:06;101417.56;;;19.70;85.45
74075;BME280;62428;51.412;5.432;2022-08-20T01:07:35;101415.63;;;19.71;85.76
74075;BME280;62428;51.412;5.432;2022-08-20T01:10:09;101418.69;;;19.69;85.90
74075;BME280;62428;51.412;5.432;2022-08-20T01:12:37;101416.66;;;19.66;85.44
74075;BME280;62428;51.412;5.432;2022-08-20T01:15:06;101402.91;;;19.63;85.40
74075;BME280;62428;51.412;5.432;2022-08-20T01:17:38;101410.63;;;19.61;85.50
74075;BME280;62428;51.412;5.432;2022-08-20T01:20:20;101418.44;;;19.62;85.32
74075;BME280;62428;51.412;5.432;2022-08-20T01:23:13;101422.09;;;19.66;84.87
74075;BME280;62428;51.412;5.432;2022-08-20T01:26:04;101418.81;;;19.61;85.23
74075;BME280;62428;51.412;5.432;2022-08-20T01:28:38;101415.72;;;19.62;85.59
74075;BME280;62428;51.412;5.432;2022-08-20T01:31:13;101417.66;;;19.62;85.75
74075;BME280;62428;51.412;5.432;2022-08-20T01:33:51;101417.31;;;19.63;85.30
74075;BME280;62428;51.412;5.432;2022-08-20T01:36:22;101413.34;;;19.61;85.31
74075;BME280;62428;51.412;5.432;2022-08-20T01:38:54;101409.81;;;19.60;85.44
74075;BME280;62428;51.412;5.432;2022-08-20T01:44:05;101411.63;;;19.56;85.05
74075;BME280;62428;51.412;5.432;2022-08-20T01:46:36;101413.78;;;19.50;85.47
74075;BME280;62428;51.412;5.432;2022-08-20T01:49:13;101408.66;;;19.49;85.15
74075;BME280;62428;51.412;5.432;2022-08-20T01:51:39;101412.44;;;19.44;85.51
74075;BME280;62428;51.412;5.432;2022-08-20T01:54:07;101409.91;;;19.39;85.63
74075;BME280;62428;51.412;5.432;2022-08-20T01:56:33;101409.34;;;19.33;85.57
74075;BME280;62428;51.412;5.432;2022-08-20T01:59:04;101418.97;;;19.31;85.76
74075;BME280;62428;51.412;5.432;2022-08-20T02:01:34;101420.44;;;19.28;85.71
74075;BME280;62428;51.412;5.432;2022-08-20T02:04:02;101415.00;;;19.28;85.81
74075;BME280;62428;51.412;5.432;2022-08-20T02:06:35;101409.41;;;19.25;85.51
74075;BME280;62428;51.412;5.432;2022-08-20T02:09:03;101419.84;;;19.23;85.56
74075;BME280;62428;51.412;5.432;2022-08-20T02:11:30;101421.78;;;19.22;86.31
74075;BME280;62428;51.412;5.432;2022-08-20T02:13:56;101423.69;;;19.21;85.48
74075;BME280;62428;51.412;5.432;2022-08-20T02:16:26;101415.06;;;19.19;85.46
74075;BME280;62428;51.412;5.432;2022-08-20T02:18:55;101415.88;;;19.20;85.40
74075;BME280;62428;51.412;5.432;2022-08-20T02:21:26;101414.63;;;19.17;85.52
74075;BME280;62428;51.412;5.432;2022-08-20T02:23:54;101421.19;;;19.16;85.29
74075;BME280;62428;51.412;5.432;2022-08-20T02:26:20;101419.16;;;19.13;85.63
74075;BME280;62428;51.412;5.432;2022-08-20T02:28:47;101414.50;;;19.14;85.60
74075;BME280;62428;51.412;5.432;2022-08-20T02:31:18;101414.16;;;19.15;85.50
74075;BME280;62428;51.412;5.432;2022-08-20T02:33:44;101415.75;;;19.16;85.52
74075;BME280;62428;51.412;5.432;2022-08-20T02:36:11;101407.94;;;19.15;85.82
74075;BME280;62428;51.412;5.432;2022-08-20T02:38:38;101423.00;;;19.12;85.26
74075;BME280;62428;51.412;5.432;2022-08-20T02:41:06;101424.47;;;19.10;85.22
74075;BME280;62428;51.412;5.432;2022-08-20T02:43:31;101416.31;;;19.10;85.17
74075;BME280;62428;51.412;5.432;2022-08-20T02:45:58;101428.19;;;19.05;85.81
74075;BME280;62428;51.412;5.432;2022-08-20T02:48:24;101429.47;;;19.08;85.59
74075;BME280;62428;51.412;5.432;2022-08-20T02:50:59;101421.63;;;19.06;85.26
74075;BME280;62428;51.412;5.432;2022-08-20T02:53:27;101427.41;;;19.05;85.44
74075;BME280;62428;51.412;5.432;2022-08-20T02:55:54;101429.00;;;19.06;85.49
74075;BME280;62428;51.412;5.432;2022-08-20T02:58:20;101420.34;;;19.04;85.44
74075;BME280;62428;51.412;5.432;2022-08-20T03:00:46;101423.88;;;19.04;85.51
74075;BME280;62428;51.412;5.432;2022-08-20T03:03:12;101415.41;;;19.06;85.64
74075;BME280;62428;51.412;5.432;2022-08-20T03:05:41;101425.47;;;19.05;85.45
74075;BME280;62428;51.412;5.432;2022-08-20T03:08:16;101432.19;;;19.08;84.98
74075;BME280;62428;51.412;5.432;2022-08-20T03:10:45;101432.66;;;19.10;85.27
74075;BME280;62428;51.412;5.432;2022-08-20T03:13:14;101436.16;;;19.10;84.89
74075;BME280;62428;51.412;5.432;2022-08-20T03:15:43;101434.22;;;19.11;85.11
74075;BME280;62428;51.412;5.432;2022-08-20T03:18:09;101436.16;;;19.10;85.03
74075;BME280;62428;51.412;5.432;2022-08-20T03:20:34;101432.50;;;19.06;85.21
74075;BME280;62428;51.412;5.432;2022-08-20T03:23:00;101432.19;;;19.08;84.88
74075;BME280;62428;51.412;5.432;2022-08-20T03:25:26;101433.63;;;19.05;84.16
74075;BME280;62428;51.412;5.432;2022-08-20T03:27:52;101428.88;;;19.02;83.86
74075;BME280;62428;51.412;5.432;2022-08-20T03:30:17;101435.31;;;18.97;83.16
74075;BME280;62428;51.412;5.432;2022-08-20T03:32:49;101432.00;;;18.92;83.65
74075;BME280;62428;51.412;5.432;2022-08-20T03:35:16;101440.81;;;18.89;83.33
74075;BME280;62428;51.412;5.432;2022-08-20T03:37:42;101446.97;;;18.86;83.10
74075;BME280;62428;51.412;5.432;2022-08-20T03:40:14;101438.97;;;18.80;82.91
74075;BME280;62428;51.412;5.432;2022-08-20T03:42:40;101444.59;;;18.75;83.22
74075;BME280;62428;51.412;5.432;2022-08-20T03:45:08;101446.84;;;18.73;83.79
74075;BME280;62428;51.412;5.432;2022-08-20T03:47:35;101447.66;;;18.74;83.89
74075;BME280;62428;51.412;5.432;2022-08-20T03:50:02;101452.31;;;18.73;83.88
74075;BME280;62428;51.412;5.432;2022-08-20T03:52:28;101453.09;;;18.74;84.15
74075;BME280;62428;51.412;5.432;2022-08-20T03:54:54;101456.59;;;18.74;83.74
74075;BME280;62428;51.412;5.432;2022-08-20T03:57:20;101446.84;;;18.73;83.96
74075;BME280;62428;51.412;5.432;2022-08-20T03:59:57;101447.84;;;18.69;83.53
74075;BME280;62428;51.412;5.432;2022-08-20T04:02:23;101448.38;;;18.62;83.50
74075;BME280;62428;51.412;5.432;2022-08-20T04:04:53;101458.00;;;18.59;83.89
74075;BME280;62428;51.412;5.432;2022-08-20T04:07:22;101455.13;;;18.56;84.03
74075;BME280;62428;51.412;5.432;2022-08-20T04:09:58;101456.94;;;18.52;83.86
74075;BME280;62428;51.412;5.432;2022-08-20T04:12:28;101463.97;;;18.53;83.76
74075;BME280;62428;51.412;5.432;2022-08-20T04:14:53;101455.47;;;18.54;83.94
74075;BME280;62428;51.412;5.432;2022-08-20T04:17:19;101457.84;;;18.56;83.35
74075;BME280;62428;51.412;5.432;2022-08-20T04:19:45;101467.03;;;18.51;83.16
74075;BME280;62428;51.412;5.432;2022-08-20T04:22:12;101461.13;;;18.49;83.54
74075;BME280;62428;51.412;5.432;2022-08-20T04:24:41;101468.94;;;18.51;83.63
74075;BME280;62428;51.412;5.432;2022-08-20T04:27:07;101467.69;;;18.48;82.92
74075;BME280;62428;51.412;5.432;2022-08-20T04:29:34;101471.03;;;18.45;83.49
74075;BME280;62428;51.412;5.432;2022-08-20T04:32:01;101468.66;;;18.43;83.34
74075;BME280;62428;51.412;5.432;2022-08-20T04:34:26;101471.38;;;18.43;83.51
74075;BME280;62428;51.412;5.432;2022-08-20T04:36:53;101475.25;;;18.42;83.24
74075;BME280;62428;51.412;5.432;2022-08-20T04:39:19;101477.16;;;18.42;83.35
74075;BME280;62428;51.412;5.432;2022-08-20T04:41:44;101482.94;;;18.40;83.50
74075;BME280;62428;51.412;5.432;2022-08-20T04:44:10;101477.94;;;18.42;83.35
74075;BME280;62428;51.412;5.432;2022-08-20T04:46:37;101488.69;;;18.39;83.29
74075;BME280;62428;51.412;5.432;2022-08-20T04:49:03;101485.03;;;18.35;82.93
74075;BME280;62428;51.412;5.432;2022-08-20T04:51:29;101486.16;;;18.34;83.66
74075;BME280;62428;51.412;5.432;2022-08-20T04:53:55;101499.91;;;18.37;83.08
74075;BME280;62428;51.412;5.432;2022-08-20T04:56:23;101499.13;;;18.37;83.25
74075;BME280;62428;51.412;5.432;2022-08-20T04:58:50;101498.31;;;18.36;83.38
74075;BME280;62428;51.412;5.432;2022-08-20T05:01:16;101498.50;;;18.31;82.77
74075;BME280;62428;51.412;5.432;2022-08-20T05:03:42;101499.94;;;18.29;82.82
74075;BME280;62428;51.412;5.432;2022-08-20T05:06:10;101506.84;;;18.26;83.04
74075;BME280;62428;51.412;5.432;2022-08-20T05:08:36;101504.13;;;18.26;82.90
74075;BME280;62428;51.412;5.432;2022-08-20T05:11:06;101505.91;;;18.22;82.26
74075;BME280;62428;51.412;5.432;2022-08-20T05:13:33;101515.66;;;18.23;82.93
74075;BME280;62428;51.412;5.432;2022-08-20T05:15:59;101519.19;;;18.23;83.10
74075;BME280;62428;51.412;5.432;2022-08-20T05:18:29;101520.63;;;18.21;82.75
74075;BME280;62428;51.412;5.432;2022-08-20T05:20:58;101526.38;;;18.19;82.94
74075;BME280;62428;51.412;5.432;2022-08-20T05:23:28;101515.81;;;18.18;82.99
74075;BME280;62428;51.412;5.432;2022-08-20T05:25:56;101514.06;;;18.22;82.70
74075;BME280;62428;51.412;5.432;2022-08-20T05:28:24;101510.22;;;18.23;82.55
74075;BME280;62428;51.412;5.432;2022-08-20T05:30:51;101519.97;;;18.24;82.43
74075;BME280;62428;51.412;5.432;2022-08-20T05:33:20;101518.84;;;18.25;82.61
74075;BME280;62428;51.412;5.432;2022-08-20T05:35:48;101519.66;;;18.25;82.73
74075;BME280;62428;51.412;5.432;2022-08-20T05:38:15;101516.13;;;18.25;82.78
74075;BME280;62428;51.412;5.432;2022-08-20T05:40:42;101520.63;;;18.21;82.41
74075;BME280;62428;51.412;5.432;2022-08-20T05:43:08;101519.38;;;18.18;83.45
74075;BME280;62428;51.412;5.432;2022-08-20T05:45:35;101536.47;;;18.19;82.82
74075;BME280;62428;51.412;5.432;2022-08-20T05:48:09;101535.00;;;18.21;83.57
74075;BME280;62428;51.412;5.432;2022-08-20T05:50:36;101530.72;;;18.20;83.80
74075;BME280;62428;51.412;5.432;2022-08-20T05:53:02;101530.38;;;18.22;83.03
74075;BME280;62428;51.412;5.432;2022-08-20T05:55:27;101533.56;;;18.24;82.83
74075;BME280;62428;51.412;5.432;2022-08-20T05:57:57;101536.28;;;18.24;83.54
74075;BME280;62428;51.412;5.432;2022-08-20T06:00:23;101535.16;;;18.25;82.97
74075;BME280;62428;51.412;5.432;2022-08-20T06:02:49;101546.03;;;18.25;83.07
74075;BME280;62428;51.412;5.432;2022-08-20T06:05:33;101547.03;;;18.20;82.35
74075;BME280;62428;51.412;5.432;2022-08-20T06:07:58;101548.94;;;18.20;82.40
74075;BME280;62428;51.412;5.432;2022-08-20T06:10:24;101543.16;;;18.21;82.67
74075;BME280;62428;51.412;5.432;2022-08-20T06:12:49;101539.34;;;18.22;82.67
74075;BME280;62428;51.412;5.432;2022-08-20T06:15:17;101543.66;;;18.23;82.70
74075;BME280;62428;51.412;5.432;2022-08-20T06:17:43;101547.50;;;18.22;82.28
74075;BME280;62428;51.412;5.432;2022-08-20T06:20:09;101549.88;;;18.24;82.55
74075;BME280;62428;51.412;5.432;2022-08-20T06:22:34;101549.41;;;18.22;82.50
74075;BME280;62428;51.412;5.432;2022-08-20T06:25:01;101548.59;;;18.21;82.79
74075;BME280;62428;51.412;5.432;2022-08-20T06:27:26;101541.25;;;18.22;82.78
74075;BME280;62428;51.412;5.432;2022-08-20T06:29:52;101541.59;;;18.20;82.41
74075;BME280;62428;51.412;5.432;2022-08-20T06:32:19;101545.09;;;18.21;82.95
74075;BME280;62428;51.412;5.432;2022-08-20T06:34:45;101547.34;;;18.19;82.60
74075;BME280;62428;51.412;5.432;2022-08-20T06:37:22;101541.59;;;18.20;82.49
74075;BME280;62428;51.412;5.432;2022-08-20T06:39:49;101545.09;;;18.21;82.98
74075;BME280;62428;51.412;5.432;2022-08-20T06:42:15;101548.28;;;18.23;83.21
74075;BME280;62428;51.412;5.432;2022-08-20T06:44:40;101547.16;;;18.24;82.94
74075;BME280;62428;51.412;5.432;2022-08-20T06:47:06;101545.72;;;18.27;82.72
74075;BME280;62428;51.412;5.432;2022-08-20T06:49:35;101545.38;;;18.28;82.30
74075;BME280;62428;51.412;5.432;2022-08-20T06:52:02;101545.38;;;18.28;82.45
74075;BME280;62428;51.412;5.432;2022-08-20T06:54:28;101552.44;;;18.29;82.56
74075;BME280;62428;51.412;5.432;2022-08-20T06:56:53;101554.47;;;18.32;82.85
74075;BME280;62428;51.412;5.432;2022-08-20T06:59:19;101545.06;;;18.30;82.19
74075;BME280;62428;51.412;5.432;2022-08-20T07:01:45;101552.09;;;18.31;82.80
74075;BME280;62428;51.412;5.432;2022-08-20T07:04:10;101548.25;;;18.32;81.86
74075;BME280;62428;51.412;5.432;2022-08-20T07:06:35;101543.13;;;18.30;82.92
74075;BME280;62428;51.412;5.432;2022-08-20T07:09:01;101547.13;;;18.33;82.14
74075;BME280;62428;51.412;5.432;2022-08-20T07:11:27;101555.28;;;18.33;81.78
74075;BME280;62428;51.412;5.432;2022-08-20T07:13:52;101557.53;;;18.31;82.45
74075;BME280;62428;51.412;5.432;2022-08-20T07:16:18;101559.13;;;18.32;82.64
74075;BME280;62428;51.412;5.432;2022-08-20T07:18:43;101568.06;;;18.32;82.14
74075;BME280;62428;51.412;5.432;2022-08-20T07:21:08;101562.63;;;18.32;82.66
74075;BME280;62428;51.412;5.432;2022-08-20T07:23:34;101568.41;;;18.31;82.01
74075;BME280;62428;51.412;5.432;2022-08-20T07:26:00;101570.78;;;18.32;82.86
74075;BME280;62428;51.412;5.432;2022-08-20T07:28:27;101572.72;;;18.32;82.33
74075;BME280;62428;51.412;5.432;2022-08-20T07:30:56;101571.94;;;18.31;82.51
74075;BME280;62428;51.412;5.432;2022-08-20T07:33:41;101574.47;;;18.36;82.69
74075;BME280;62428;51.412;5.432;2022-08-20T07:36:07;101576.53;;;18.39;83.19
74075;BME280;62428;51.412;5.432;2022-08-20T07:38:33;101581.00;;;18.44;82.62
74075;BME280;62428;51.412;5.432;2022-08-20T07:41:06;101590.41;;;18.47;82.33
74075;BME280;62428;51.412;5.432;2022-08-20T07:43:32;101582.25;;;18.47;81.53
74075;BME280;62428;51.412;5.432;2022-08-20T07:45:59;101592.03;;;18.48;82.64
74075;BME280;62428;51.412;5.432;2022-08-20T07:48:27;101596.78;;;18.51;82.46
74075;BME280;62428;51.412;5.432;2022-08-20T07:50:54;101597.44;;;18.56;82.28
74075;BME280;62428;51.412;5.432;2022-08-20T07:53:19;101594.38;;;18.58;81.81
74075;BME280;62428;51.412;5.432;2022-08-20T07:55:45;101602.06;;;18.56;81.61
74075;BME280;62428;51.412;5.432;2022-08-20T07:58:12;101602.88;;;18.56;81.44
74075;BME280;62428;51.412;5.432;2022-08-20T08:00:38;101613.75;;;18.56;81.89
74075;BME280;62428;51.412;5.432;2022-08-20T08:03:04;101610.38;;;18.59;82.26
74075;BME280;62428;51.412;5.432;2022-08-20T08:05:33;101609.25;;;18.60;81.67
74075;BME280;62428;51.412;5.432;2022-08-20T08:07:59;101615.16;;;18.62;82.44
74075;BME280;62428;51.412;5.432;2022-08-20T08:10:25;101612.13;;;18.64;82.66
74075;BME280;62428;51.412;5.432;2022-08-20T08:12:54;101621.22;;;18.68;82.02
74075;BME280;62428;51.412;5.432;2022-08-20T08:15:24;101616.72;;;18.72;82.40
74075;BME280;62428;51.412;5.432;2022-08-20T08:17:52;101617.63;;;18.76;81.84
74075;BME280;62428;51.412;5.432;2022-08-20T08:20:20;101611.41;;;18.85;81.69
74075;BME280;62428;51.412;5.432;2022-08-20T08:22:46;101616.97;;;18.88;81.13
74075;BME280;62428;51.412;5.432;2022-08-20T08:25:13;101625.47;;;18.87;80.43
74075;BME280;62428;51.412;5.432;2022-08-20T08:27:41;101616.06;;;18.84;80.96
74075;BME280;62428;51.412;5.432;2022-08-20T08:30:07;101616.38;;;18.82;80.74
74075;BME280;62428;51.412;5.432;2022-08-20T08:32:37;101620.34;;;18.85;80.70
74075;BME280;62428;51.412;5.432;2022-08-20T08:35:22;101620.03;;;18.87;81.38
74075;BME280;62428;51.412;5.432;2022-08-20T08:37:47;101615.88;;;18.89;81.77
74075;BME280;62428;51.412;5.432;2022-08-20T08:40:13;101619.19;;;18.95;81.58
74075;BME280;62428;51.412;5.432;2022-08-20T08:42:43;101633.09;;;19.02;81.78
74075;BME280;62428;51.412;5.432;2022-08-20T08:45:09;101636.06;;;19.09;81.15
74075;BME280;62428;51.412;5.432;2022-08-20T08:47:38;101624.19;;;19.14;80.45
74075;BME280;62428;51.412;5.432;2022-08-20T08:50:11;101626.44;;;19.12;79.87
74075;BME280;62428;51.412;5.432;2022-08-20T08:52:40;101632.69;;;19.12;79.91
74075;BME280;62428;51.412;5.432;2022-08-20T08:55:10;101630.78;;;19.34;79.48
74075;BME280;62428;51.412;5.432;2022-08-20T08:57:40;101635.91;;;19.77;78.07
74075;BME280;62428;51.412;5.432;2022-08-20T09:00:11;101638.94;;;20.09;76.79
74075;BME280;62428;51.412;5.432;2022-08-20T09:02:38;101642.75;;;20.42;76.58
74075;BME280;62428;51.412;5.432;2022-08-20T09:05:15;101635.22;;;20.72;75.06
74075;BME280;62428;51.412;5.432;2022-08-20T09:07:43;101639.13;;;21.11;73.32
74075;BME280;62428;51.412;5.432;2022-08-20T09:10:12;101641.59;;;21.41;71.31
74075;BME280;62428;51.412;5.432;2022-08-20T09:12:38;101638.03;;;21.53;69.48
74075;BME280;62428;51.412;5.432;2022-08-20T09:15:03;101642.72;;;21.81;69.35
74075;BME280;62428;51.412;5.432;2022-08-20T09:17:29;101642.22;;;21.91;68.69
74075;BME280;62428;51.412;5.432;2022-08-20T09:19:55;101640.66;;;22.06;68.06
74075;BME280;62428;51.412;5.432;2022-08-20T09:22:22;101637.59;;;22.23;66.81
74075;BME280;62428;51.412;5.432;2022-08-20T09:24:49;101630.47;;;22.35;65.80
74075;BME280;62428;51.412;5.432;2022-08-20T09:27:15;101627.00;;;22.22;64.19
74075;BME280;62428;51.412;5.432;2022-08-20T09:29:41;101626.78;;;21.99;65.08
74075;BME280;62428;51.412;5.432;2022-08-20T09:32:18;101631.88;;;21.84;67.23
74075;BME280;62428;51.412;5.432;2022-08-20T09:34:49;101634.06;;;21.79;66.06
74075;BME280;62428;51.412;5.432;2022-08-20T09:37:26;101632.41;;;21.90;64.46
74075;BME280;62428;51.412;5.432;2022-08-20T09:39:51;101623.63;;;22.13;64.67
74075;BME280;62428;51.412;5.432;2022-08-20T09:42:20;101626.22;;;22.37;64.26
74075;BME280;62428;51.412;5.432;2022-08-20T09:44:46;101621.88;;;22.52;64.10
74075;BME280;62428;51.412;5.432;2022-08-20T09:47:11;101628.56;;;22.71;62.29
74075;BME280;62428;51.412;5.432;2022-08-20T09:49:38;101624.88;;;22.79;61.36
74075;BME280;62428;51.412;5.432;2022-08-20T09:52:06;101621.50;;;22.86;59.78
74075;BME280;62428;51.412;5.432;2022-08-20T09:54:33;101621.38;;;22.98;60.49
74075;BME280;62428;51.412;5.432;2022-08-20T09:57:02;101625.53;;;23.08;61.74
74075;BME280;62428;51.412;5.432;2022-08-20T09:59:29;101626.50;;;23.15;59.06
74075;BME280;62428;51.412;5.432;2022-08-20T10:01:55;101628.94;;;23.20;59.60
74075;BME280;62428;51.412;5.432;2022-08-20T10:04:20;101633.50;;;23.13;58.42
74075;BME280;62428;51.412;5.432;2022-08-20T10:06:46;101632.63;;;22.93;57.12
74075;BME280;62428;51.412;5.432;2022-08-20T10:09:11;101627.25;;;22.80;56.05
74075;BME280;62428;51.412;5.432;2022-08-20T10:11:37;101627.94;;;22.93;56.51
74075;BME280;62428;51.412;5.432;2022-08-20T10:14:02;101618.09;;;23.08;53.91
74075;BME280;62428;51.412;5.432;2022-08-20T10:16:27;101627.50;;;23.27;53.08
74075;BME280;62428;51.412;5.432;2022-08-20T10:18:53;101618.72;;;23.37;54.33
74075;BME280;62428;51.412;5.432;2022-08-20T10:21:18;101615.38;;;23.47;53.68
74075;BME280;62428;51.412;5.432;2022-08-20T10:23:44;101621.50;;;23.60;55.16
74075;BME280;62428;51.412;5.432;2022-08-20T10:26:10;101637.09;;;23.75;54.11
74075;BME280;62428;51.412;5.432;2022-08-20T10:28:36;101633.56;;;23.94;55.19
74075;BME280;62428;51.412;5.432;2022-08-20T10:31:04;101635.47;;;24.13;53.09
74075;BME280;62428;51.412;5.432;2022-08-20T10:33:30;101631.97;;;23.93;51.82
74075;BME280;62428;51.412;5.432;2022-08-20T10:35:55;101634.50;;;23.63;52.14
74075;BME280;62428;51.412;5.432;2022-08-20T10:38:20;101635.94;;;23.37;50.29
74075;BME280;62428;51.412;5.432;2022-08-20T10:40:46;101636.16;;;23.29;49.87
74075;BME280;62428;51.412;5.432;2022-08-20T10:43:11;101631.75;;;23.44;50.10
74075;BME280;62428;51.412;5.432;2022-08-20T10:45:36;101635.06;;;23.53;50.97
74075;BME280;62428;51.412;5.432;2022-08-20T10:48:02;101642.38;;;23.65;51.86
74075;BME280;62428;51.412;5.432;2022-08-20T10:50:27;101634.16;;;23.84;49.25
74075;BME280;62428;51.412;5.432;2022-08-20T10:52:53;101633.44;;;24.10;48.65
74075;BME280;62428;51.412;5.432;2022-08-20T10:55:18;101630.59;;;24.26;48.35
74075;BME280;62428;51.412;5.432;2022-08-20T10:57:44;101635.63;;;24.47;50.40
74075;BME280;62428;51.412;5.432;2022-08-20T11:00:12;101641.06;;;24.67;49.94
74075;BME280;62428;51.412;5.432;2022-08-20T11:02:39;101639.75;;;24.57;49.25
74075;BME280;62428;51.412;5.432;2022-08-20T11:05:05;101631.28;;;24.69;48.07
74075;BME280;62428;51.412;5.432;2022-08-20T11:07:36;101641.03;;;24.90;48.07
74075;BME280;62428;51.412;5.432;2022-08-20T11:10:03;101638.81;;;24.99;46.42
74075;BME280;62428;51.412;5.432;2022-08-20T11:12:28;101631.75;;;25.02;47.02
74075;BME280;62428;51.412;5.432;2022-08-20T11:14:54;101630.56;;;25.29;45.50
74075;BME280;62428;51.412;5.432;2022-08-20T11:17:32;101622.47;;;25.74;47.60
74075;BME280;62428;51.412;5.432;2022-08-20T11:19:59;101623.03;;;25.57;42.99
74075;BME280;62428;51.412;5.432;2022-08-20T11:22:25;101624.97;;;25.22;45.76
74075;BME280;62428;51.412;5.432;2022-08-20T11:24:51;101629.22;;;24.89;46.06
74075;BME280;62428;51.412;5.432;2022-08-20T11:27:23;101635.88;;;24.62;47.05
74075;BME280;62428;51.412;5.432;2022-08-20T11:29:49;101632.03;;;24.43;47.86
74075;BME280;62428;51.412;5.432;2022-08-20T11:32:15;101635.28;;;24.26;48.49
74075;BME280;62428;51.412;5.432;2022-08-20T11:34:41;101638.03;;;24.03;49.00
74075;BME280;62428;51.412;5.432;2022-08-20T11:37:06;101632.13;;;23.81;49.66
74075;BME280;62428;51.412;5.432;2022-08-20T11:39:31;101635.34;;;23.67;50.24
74075;BME280;62428;51.412;5.432;2022-08-20T11:41:57;101640.28;;;23.58;51.59
74075;BME280;62428;51.412;5.432;2022-08-20T11:44:22;101640.28;;;23.58;51.60
74075;BME280;62428;51.412;5.432;2022-08-20T11:46:48;101637.88;;;23.76;51.19
74075;BME280;62428;51.412;5.432;2022-08-20T11:49:13;101636.53;;;23.86;49.57
74075;BME280;62428;51.412;5.432;2022-08-20T11:51:38;101632.19;;;24.04;46.33
74075;BME280;62428;51.412;5.432;2022-08-20T11:54:04;101634.97;;;24.31;46.82
74075;BME280;62428;51.412;5.432;2022-08-20T11:56:30;101629.13;;;24.55;45.91
74075;BME280;62428;51.412;5.432;2022-08-20T11:58:55;101637.47;;;24.89;46.23
74075;BME280;62428;51.412;5.432;2022-08-20T12:01:21;101634.38;;;25.21;45.03
74075;BME280;62428;51.412;5.432;2022-08-20T12:03:46;101629.38;;;25.61;43.15
74075;BME280;62428;51.412;5.432;2022-08-20T12:06:11;101620.13;;;25.76;43.39
74075;BME280;62428;51.412;5.432;2022-08-20T12:08:37;101619.28;;;25.72;42.63
74075;BME280;62428;51.412;5.432;2022-08-20T12:11:02;101619.22;;;25.65;43.85
74075;BME280;62428;51.412;5.432;2022-08-20T12:13:30;101630.59;;;26.01;43.79
74075;BME280;62428;51.412;5.432;2022-08-20T12:15:57;101626.31;;;26.52;41.38
74075;BME280;62428;51.412;5.432;2022-08-20T12:18:22;101633.25;;;26.87;41.06
74075;BME280;62428;51.412;5.432;2022-08-20T12:20:48;101631.34;;;26.91;40.68
74075;BME280;62428;51.412;5.432;2022-08-20T12:23:13;101630.53;;;26.38;41.74
74075;BME280;62428;51.412;5.432;2022-08-20T12:25:39;101623.56;;;26.03;42.56
74075;BME280;62428;51.412;5.432;2022-08-20T12:28:05;101613.84;;;25.76;41.26
74075;BME280;62428;51.412;5.432;2022-08-20T12:30:31;101626.22;;;25.59;43.32
74075;BME280;62428;51.412;5.432;2022-08-20T12:32:57;101619.75;;;25.44;42.51
74075;BME280;62428;51.412;5.432;2022-08-20T12:35:23;101627.09;;;25.32;44.36
74075;BME280;62428;51.412;5.432;2022-08-20T12:37:49;101631.63;;;25.21;44.18
74075;BME280;62428;51.412;5.432;2022-08-20T12:40:19;101629.22;;;25.16;43.88
74075;BME280;62428;51.412;5.432;2022-08-20T12:42:45;101627.28;;;24.90;42.87
74075;BME280;62428;51.412;5.432;2022-08-20T12:45:11;101627.28;;;24.63;43.82
74075;BME280;62428;51.412;5.432;2022-08-20T12:47:39;101615.94;;;24.42;44.80
74075;BME280;62428;51.412;5.432;2022-08-20T12:50:09;101625.88;;;24.27;45.10
74075;BME280;62428;51.412;5.432;2022-08-20T12:52:36;101618.38;;;24.24;45.48
74075;BME280;62428;51.412;5.432;2022-08-20T12:55:03;101627.91;;;24.30;45.83
74075;BME280;62428;51.412;5.432;2022-08-20T12:57:38;101623.22;;;24.30;44.83